Terminal Aerodrome Forecast
Issued by NWS Wakefield, VA

Home | Current Version | Previous Version | Text Only | Print | Product List | Glossary On
Versions: 1 2 3 4 5 6 7 8 9 10 11 12 13 14 15
827
FTUS41 KAKQ 052322
TAFECG
TAF
KECG 052322Z 0600/0624 01006KT P6SM SCT200
     FM060600 02004KT P6SM VCSH OVC090
     FM061100 05007KT 5SM -RA BR OVC040
     FM061300 06011KT 5SM RA BR OVC025
     FM061500 08014G22KT 4SM RA BR OVC010
     FM061800 09013G20KT 2SM RA BR OVC007=

USA.gov is the U.S. government's official web portal to all federal, state and local government web resources and services.